»·PEaware :: SWA102 KPHX-KSNA

SWA102 :: KPHX-KSNA

FLIGHT INFORMATION

Flight Status: Arrived
Operator:
Southwest Airlines
More flights by this operator :: More flights under this callsign
Pilot: Cole F. (14495)
Aircraft: BOEING 737-300
(B733)
More flights by this aircraft type
Origin: KPHX Phoenix Sky Harbor Intl
United States
Destination: KSNA John Wayne-Orange Co
United States
More flights between these airports :: More routes between these airports
Route: +IZZZO6 HRRBR EMLLD DSNEE3
File this flight plan on PilotEdge
Remarks:
Altitude:
(Current/Filed)
36,000ft
Speed:
(Current/Filed)
436kts
Departed: 08-Apr-18 12:48 PM
Arrived: 08-Apr-18 01:49 PM
Distance/Time
Traveled:
293nm/1:01
Distance/Time
To Go:
Arrived

Flight Plot

Page will automatically refresh every two minutes.

Flight plan parsing failed; only flown route is shown


Map Options




Map Legend


Flown Route
Filed Route
Departure Airport
Arrival Airport
Navaid (VOR, NDB)
Fix

Horizontal Profiles

Position Reports

Time Latitude Longitude Heading Altitude Ground
Speed
08-Apr-18 12:17 33.434049 -111.997293 77 1141ft 0kts
08-Apr-18 12:18 33.434049 -111.997293 77 1141ft 0kts
08-Apr-18 12:19 33.434049 -111.997293 77 1141ft 0kts
08-Apr-18 12:20 33.434049 -111.997293 77 1141ft 0kts
08-Apr-18 12:21 33.434049 -111.997293 77 1141ft 0kts
08-Apr-18 12:22 33.434049 -111.997293 77 1141ft 0kts
08-Apr-18 12:23 33.434049 -111.997293 77 1141ft 0kts
08-Apr-18 12:24 33.434049 -111.997293 77 1141ft 0kts
08-Apr-18 12:25 33.434049 -111.997293 77 1141ft 0kts
08-Apr-18 12:26 33.434049 -111.997293 77 1141ft 0kts
08-Apr-18 12:27 33.434049 -111.997293 77 1141ft 0kts
08-Apr-18 12:28 33.434049 -111.997293 77 1141ft 0kts
08-Apr-18 12:29 33.434049 -111.997293 77 1141ft 0kts
08-Apr-18 12:30 33.434044 -111.997321 78 1141ft 2kts
08-Apr-18 12:31 33.434176 -111.997822 183 1141ft 1kts
08-Apr-18 12:32 33.434231 -111.997818 178 1141ft 0kts
08-Apr-18 12:33 33.434161 -111.997815 178 1141ft 2kts
08-Apr-18 12:34 33.432828 -111.999054 269 1141ft 14kts
08-Apr-18 12:35 33.432861 -112.004978 273 1141ft 18kts
08-Apr-18 12:36 33.432887 -112.011337 270 1141ft 19kts
08-Apr-18 12:37 33.432895 -112.017980 270 1141ft 20kts
08-Apr-18 12:38 33.432901 -112.024420 268 1141ft 20kts
08-Apr-18 12:39 33.432022 -112.026972 180 1141ft 0kts
08-Apr-18 12:40 33.432022 -112.026972 180 1141ft 0kts
08-Apr-18 12:41 33.432022 -112.026972 180 1141ft 0kts
08-Apr-18 12:42 33.432022 -112.026972 180 1141ft 0kts
08-Apr-18 12:43 33.432022 -112.026972 180 1141ft 0kts
08-Apr-18 12:44 33.432022 -112.026972 180 1141ft 0kts
08-Apr-18 12:45 33.432022 -112.026972 180 1141ft 0kts
08-Apr-18 12:46 33.432022 -112.026972 180 1141ft 0kts
08-Apr-18 12:47 33.431058 -112.022761 89 1141ft 64kts
08-Apr-18 12:48 33.430366 -111.971765 88 1885ft 214kts
08-Apr-18 12:49 33.433937 -111.890600 88 4430ft 247kts
08-Apr-18 12:50 33.385471 -111.845685 199 7157ft 251kts
08-Apr-18 12:51 33.354414 -111.908295 275 10124ft 241kts
08-Apr-18 12:52 33.365763 -111.993317 281 11330ft 308kts
08-Apr-18 12:53 33.380776 -112.099528 281 13783ft 330kts
08-Apr-18 12:54 33.396211 -112.209029 281 16395ft 340kts
08-Apr-18 12:55 33.411986 -112.321634 280 18771ft 349kts
08-Apr-18 12:56 33.428138 -112.437746 280 20753ft 361kts
08-Apr-18 12:57 33.444583 -112.556817 280 22086ft 368kts
08-Apr-18 12:58 33.451437 -112.680326 271 23946ft 379kts
08-Apr-18 12:59 33.454004 -112.806668 279 25773ft 385kts
08-Apr-18 13:00 33.477630 -112.932676 282 27424ft 392kts
08-Apr-18 13:01 33.501150 -113.058236 282 29724ft 379kts
08-Apr-18 13:02 33.523872 -113.180436 281 31358ft 376kts
08-Apr-18 13:03 33.546346 -113.302011 281 32855ft 371kts
08-Apr-18 13:04 33.568429 -113.422200 281 34060ft 369kts
08-Apr-18 13:05 33.586576 -113.521618 280 35044ft 364kts
08-Apr-18 13:06 33.608158 -113.639049 281 35925ft 361kts
08-Apr-18 13:07 33.630234 -113.757904 280 35921ft 368kts
08-Apr-18 13:08 33.654118 -113.877117 289 35905ft 369kts
08-Apr-18 13:09 33.697628 -113.989064 291 35916ft 371kts
08-Apr-18 13:10 33.741007 -114.101557 291 35914ft 371kts
08-Apr-18 13:11 33.766393 -114.213905 276 35916ft 367kts
08-Apr-18 13:12 33.780215 -114.335353 276 35914ft 366kts
08-Apr-18 13:13 33.794288 -114.456200 276 35914ft 367kts
08-Apr-18 13:14 33.808251 -114.576957 276 35541ft 359kts
08-Apr-18 13:15 33.821673 -114.694233 276 35205ft 358kts
08-Apr-18 13:16 33.835138 -114.812829 276 34964ft 359kts
08-Apr-18 13:17 33.848404 -114.931936 276 34724ft 360kts
08-Apr-18 13:18 33.861382 -115.051174 276 34484ft 361kts
08-Apr-18 13:19 33.874665 -115.170981 276 34243ft 362kts
08-Apr-18 13:20 33.887922 -115.291490 277 33318ft 363kts
08-Apr-18 13:21 33.901094 -115.412338 277 32137ft 366kts
08-Apr-18 13:22 33.914248 -115.534137 277 30956ft 370kts
08-Apr-18 13:23 33.928424 -115.677815 274 29541ft 374kts
08-Apr-18 13:24 33.935341 -115.779052 275 28585ft 378kts
08-Apr-18 13:25 33.944347 -115.905894 275 27590ft 383kts
08-Apr-18 13:26 33.953347 -116.034061 275 26605ft 390kts
08-Apr-18 13:27 33.962327 -116.163869 275 25461ft 391kts
08-Apr-18 13:28 33.953822 -116.292052 263 24277ft 386kts
08-Apr-18 13:29 33.938760 -116.412826 264 23143ft 363kts
08-Apr-18 13:30 33.924624 -116.527261 264 21990ft 357kts
08-Apr-18 13:31 33.909575 -116.644369 264 20794ft 353kts
08-Apr-18 13:32 33.894716 -116.760225 264 19436ft 349kts
08-Apr-18 13:33 33.882135 -116.875212 265 17942ft 344kts
08-Apr-18 13:34 33.869857 -116.987320 265 16452ft 335kts
08-Apr-18 13:35 33.857698 -117.096479 265 14675ft 323kts
08-Apr-18 13:36 33.846012 -117.201465 266 12630ft 310kts
08-Apr-18 13:37 33.834886 -117.300725 266 10567ft 288kts
08-Apr-18 13:38 33.824763 -117.390473 263 9025ft 258kts
08-Apr-18 13:39 33.810077 -117.473439 249 7622ft 251kts
08-Apr-18 13:40 33.799792 -117.552484 272 7453ft 250kts
08-Apr-18 13:41 33.820119 -117.627375 301 6096ft 235kts
08-Apr-18 13:42 33.854430 -117.691990 301 4793ft 232kts
08-Apr-18 13:43 33.852278 -117.757684 211 3517ft 222kts
08-Apr-18 13:44 33.804221 -117.787717 205 2891ft 188kts
08-Apr-18 13:45 33.764204 -117.812966 205 1909ft 138kts
08-Apr-18 13:46 33.731701 -117.833183 207 1201ft 131kts
08-Apr-18 13:47 33.699738 -117.853630 206 546ft 131kts
08-Apr-18 13:48 33.671198 -117.871691 208 63ft 35kts

Navigation Log

Ident Type
Flight plan parsing failed, navigation log unavailable